sensor_id;sensor_type;location;lat;lon;timestamp;P1;durP1;ratioP1;P2;durP2;ratioP2
19038;SDS011;9652;49.014;12.052;2023-07-22T00:00:30;2.83;;;2.10;;
19038;SDS011;9652;49.014;12.052;2023-07-22T00:02:57;2.10;;;1.60;;
19038;SDS011;9652;49.014;12.052;2023-07-22T00:05:24;2.10;;;1.90;;
19038;SDS011;9652;49.014;12.052;2023-07-22T00:07:53;2.00;;;1.73;;
19038;SDS011;9652;49.014;12.052;2023-07-22T00:10:20;3.23;;;2.00;;
19038;SDS011;9652;49.014;12.052;2023-07-22T00:12:47;1.67;;;1.57;;
19038;SDS011;9652;49.014;12.052;2023-07-22T00:15:14;1.80;;;1.57;;
19038;SDS011;9652;49.014;12.052;2023-07-22T00:17:41;2.00;;;1.77;;
19038;SDS011;9652;49.014;12.052;2023-07-22T00:20:09;1.80;;;1.70;;
19038;SDS011;9652;49.014;12.052;2023-07-22T00:22:37;2.10;;;1.70;;
19038;SDS011;9652;49.014;12.052;2023-07-22T00:25:07;1.97;;;1.77;;
19038;SDS011;9652;49.014;12.052;2023-07-22T00:27:36;2.73;;;1.80;;
19038;SDS011;9652;49.014;12.052;2023-07-22T00:30:04;1.87;;;1.77;;
19038;SDS011;9652;49.014;12.052;2023-07-22T00:32:33;1.80;;;1.57;;
19038;SDS011;9652;49.014;12.052;2023-07-22T00:35:02;1.83;;;1.50;;
19038;SDS011;9652;49.014;12.052;2023-07-22T00:37:30;2.17;;;1.97;;
19038;SDS011;9652;49.014;12.052;2023-07-22T00:39:57;1.70;;;1.60;;
19038;SDS011;9652;49.014;12.052;2023-07-22T00:42:26;2.20;;;1.67;;
19038;SDS011;9652;49.014;12.052;2023-07-22T00:44:53;1.77;;;1.47;;
19038;SDS011;9652;49.014;12.052;2023-07-22T00:47:20;2.30;;;1.80;;
19038;SDS011;9652;49.014;12.052;2023-07-22T00:49:48;1.87;;;1.50;;
19038;SDS011;9652;49.014;12.052;2023-07-22T00:52:17;2.80;;;1.97;;
19038;SDS011;9652;49.014;12.052;2023-07-22T00:54:44;2.20;;;1.80;;
19038;SDS011;9652;49.014;12.052;2023-07-22T00:57:12;4.67;;;1.70;;
19038;SDS011;9652;49.014;12.052;2023-07-22T00:59:40;2.53;;;1.90;;
19038;SDS011;9652;49.014;12.052;2023-07-22T01:02:07;2.50;;;1.93;;
19038;SDS011;9652;49.014;12.052;2023-07-22T01:04:35;4.23;;;1.57;;
19038;SDS011;9652;49.014;12.052;2023-07-22T01:07:03;1.83;;;1.73;;
19038;SDS011;9652;49.014;12.052;2023-07-22T01:09:35;2.00;;;1.80;;
19038;SDS011;9652;49.014;12.052;2023-07-22T01:12:03;2.37;;;1.80;;
19038;SDS011;9652;49.014;12.052;2023-07-22T01:14:32;2.00;;;1.83;;
19038;SDS011;9652;49.014;12.052;2023-07-22T01:17:01;2.00;;;1.80;;
19038;SDS011;9652;49.014;12.052;2023-07-22T01:19:30;2.43;;;1.60;;
19038;SDS011;9652;49.014;12.052;2023-07-22T01:21:58;1.90;;;1.50;;
19038;SDS011;9652;49.014;12.052;2023-07-22T01:24:29;1.87;;;1.57;;
19038;SDS011;9652;49.014;12.052;2023-07-22T01:26:57;2.00;;;1.47;;
19038;SDS011;9652;49.014;12.052;2023-07-22T01:29:24;2.60;;;1.80;;
19038;SDS011;9652;49.014;12.052;2023-07-22T01:31:53;2.40;;;1.60;;
19038;SDS011;9652;49.014;12.052;2023-07-22T01:34:21;1.70;;;1.60;;
19038;SDS011;9652;49.014;12.052;2023-07-22T01:36:49;2.30;;;1.80;;
19038;SDS011;9652;49.014;12.052;2023-07-22T01:39:17;3.27;;;1.87;;
19038;SDS011;9652;49.014;12.052;2023-07-22T01:41:46;1.60;;;1.50;;
19038;SDS011;9652;49.014;12.052;2023-07-22T01:44:13;2.57;;;1.60;;
19038;SDS011;9652;49.014;12.052;2023-07-22T01:46:40;1.93;;;1.73;;
19038;SDS011;9652;49.014;12.052;2023-07-22T01:49:10;2.67;;;1.73;;
19038;SDS011;9652;49.014;12.052;2023-07-22T01:51:38;2.20;;;1.77;;
19038;SDS011;9652;49.014;12.052;2023-07-22T01:54:06;1.60;;;1.40;;
19038;SDS011;9652;49.014;12.052;2023-07-22T01:56:34;2.03;;;1.60;;
19038;SDS011;9652;49.014;12.052;2023-07-22T01:59:03;2.37;;;1.87;;
19038;SDS011;9652;49.014;12.052;2023-07-22T02:01:31;2.30;;;1.83;;
19038;SDS011;9652;49.014;12.052;2023-07-22T02:03:58;1.80;;;1.70;;
19038;SDS011;9652;49.014;12.052;2023-07-22T02:06:25;2.20;;;1.93;;
19038;SDS011;9652;49.014;12.052;2023-07-22T02:08:54;2.13;;;1.40;;
19038;SDS011;9652;49.014;12.052;2023-07-22T02:11:22;3.67;;;1.90;;
19038;SDS011;9652;49.014;12.052;2023-07-22T02:13:49;1.73;;;1.63;;
19038;SDS011;9652;49.014;12.052;2023-07-22T02:16:17;2.20;;;2.00;;
19038;SDS011;9652;49.014;12.052;2023-07-22T02:18:45;1.90;;;1.80;;
19038;SDS011;9652;49.014;12.052;2023-07-22T02:21:12;2.67;;;1.53;;
19038;SDS011;9652;49.014;12.052;2023-07-22T02:23:39;2.23;;;1.80;;
19038;SDS011;9652;49.014;12.052;2023-07-22T02:26:07;3.37;;;1.70;;
19038;SDS011;9652;49.014;12.052;2023-07-22T02:28:34;1.90;;;1.80;;
19038;SDS011;9652;49.014;12.052;2023-07-22T02:31:01;2.60;;;1.70;;
19038;SDS011;9652;49.014;12.052;2023-07-22T02:33:33;2.73;;;1.90;;
19038;SDS011;9652;49.014;12.052;2023-07-22T02:36:00;2.23;;;1.90;;
19038;SDS011;9652;49.014;12.052;2023-07-22T02:38:27;1.90;;;1.80;;
19038;SDS011;9652;49.014;12.052;2023-07-22T02:40:55;1.90;;;1.50;;
19038;SDS011;9652;49.014;12.052;2023-07-22T02:43:28;1.87;;;1.60;;
19038;SDS011;9652;49.014;12.052;2023-07-22T02:45:55;1.83;;;1.73;;
19038;SDS011;9652;49.014;12.052;2023-07-22T02:48:22;1.83;;;1.60;;
19038;SDS011;9652;49.014;12.052;2023-07-22T02:50:51;2.00;;;1.80;;
19038;SDS011;9652;49.014;12.052;2023-07-22T02:53:18;3.03;;;1.50;;
19038;SDS011;9652;49.014;12.052;2023-07-22T02:55:45;2.97;;;1.70;;
19038;SDS011;9652;49.014;12.052;2023-07-22T02:58:13;2.47;;;1.70;;
19038;SDS011;9652;49.014;12.052;2023-07-22T03:00:39;1.77;;;1.67;;
19038;SDS011;9652;49.014;12.052;2023-07-22T03:03:07;2.77;;;2.10;;
19038;SDS011;9652;49.014;12.052;2023-07-22T03:05:34;2.03;;;1.93;;
19038;SDS011;9652;49.014;12.052;2023-07-22T03:08:03;2.97;;;1.70;;
19038;SDS011;9652;49.014;12.052;2023-07-22T03:10:32;3.87;;;1.80;;
19038;SDS011;9652;49.014;12.052;2023-07-22T03:12:59;2.63;;;1.57;;
19038;SDS011;9652;49.014;12.052;2023-07-22T03:15:28;2.07;;;1.87;;
19038;SDS011;9652;49.014;12.052;2023-07-22T03:17:56;1.70;;;1.60;;
19038;SDS011;9652;49.014;12.052;2023-07-22T03:20:24;2.13;;;1.80;;
19038;SDS011;9652;49.014;12.052;2023-07-22T03:22:51;2.10;;;1.90;;
19038;SDS011;9652;49.014;12.052;2023-07-22T03:25:21;2.10;;;1.90;;
19038;SDS011;9652;49.014;12.052;2023-07-22T03:27:48;2.10;;;1.77;;
19038;SDS011;9652;49.014;12.052;2023-07-22T03:30:15;2.13;;;1.93;;
19038;SDS011;9652;49.014;12.052;2023-07-22T03:32:44;2.97;;;1.80;;
19038;SDS011;9652;49.014;12.052;2023-07-22T03:35:15;2.33;;;1.97;;
19038;SDS011;9652;49.014;12.052;2023-07-22T03:37:43;1.87;;;1.73;;
19038;SDS011;9652;49.014;12.052;2023-07-22T03:40:10;2.53;;;1.87;;
19038;SDS011;9652;49.014;12.052;2023-07-22T03:42:45;2.13;;;1.90;;
19038;SDS011;9652;49.014;12.052;2023-07-22T03:45:13;1.77;;;1.67;;
19038;SDS011;9652;49.014;12.052;2023-07-22T03:47:40;1.93;;;1.73;;
19038;SDS011;9652;49.014;12.052;2023-07-22T03:50:07;2.03;;;1.90;;
19038;SDS011;9652;49.014;12.052;2023-07-22T03:52:35;2.20;;;1.83;;
19038;SDS011;9652;49.014;12.052;2023-07-22T03:55:02;2.07;;;1.87;;
19038;SDS011;9652;49.014;12.052;2023-07-22T03:57:31;4.47;;;2.17;;
19038;SDS011;9652;49.014;12.052;2023-07-22T04:00:00;2.23;;;1.80;;
19038;SDS011;9652;49.014;12.052;2023-07-22T04:02:37;1.93;;;1.70;;
19038;SDS011;9652;49.014;12.052;2023-07-22T04:05:05;2.20;;;2.00;;
19038;SDS011;9652;49.014;12.052;2023-07-22T04:07:33;2.13;;;1.93;;
19038;SDS011;9652;49.014;12.052;2023-07-22T04:10:00;2.40;;;2.20;;
19038;SDS011;9652;49.014;12.052;2023-07-22T04:12:28;2.20;;;2.00;;
19038;SDS011;9652;49.014;12.052;2023-07-22T04:14:56;1.73;;;1.63;;
19038;SDS011;9652;49.014;12.052;2023-07-22T04:17:24;3.87;;;1.90;;
19038;SDS011;9652;49.014;12.052;2023-07-22T04:19:51;2.03;;;1.77;;
19038;SDS011;9652;49.014;12.052;2023-07-22T04:22:18;2.67;;;2.10;;
19038;SDS011;9652;49.014;12.052;2023-07-22T04:24:46;6.07;;;1.90;;
19038;SDS011;9652;49.014;12.052;2023-07-22T04:27:14;2.73;;;1.87;;
19038;SDS011;9652;49.014;12.052;2023-07-22T04:29:42;2.17;;;1.97;;
19038;SDS011;9652;49.014;12.052;2023-07-22T04:32:09;2.43;;;2.00;;
19038;SDS011;9652;49.014;12.052;2023-07-22T04:34:37;2.13;;;1.70;;
19038;SDS011;9652;49.014;12.052;2023-07-22T04:37:05;2.23;;;1.87;;
19038;SDS011;9652;49.014;12.052;2023-07-22T04:39:32;2.63;;;2.07;;
19038;SDS011;9652;49.014;12.052;2023-07-22T04:41:59;1.57;;;1.47;;
19038;SDS011;9652;49.014;12.052;2023-07-22T04:44:26;2.17;;;1.90;;
19038;SDS011;9652;49.014;12.052;2023-07-22T04:46:53;2.67;;;1.77;;
19038;SDS011;9652;49.014;12.052;2023-07-22T04:49:21;1.80;;;1.70;;
19038;SDS011;9652;49.014;12.052;2023-07-22T04:51:49;2.13;;;2.00;;
19038;SDS011;9652;49.014;12.052;2023-07-22T04:54:16;2.10;;;1.90;;
19038;SDS011;9652;49.014;12.052;2023-07-22T04:56:44;2.40;;;2.20;;
19038;SDS011;9652;49.014;12.052;2023-07-22T04:59:11;2.10;;;1.90;;
19038;SDS011;9652;49.014;12.052;2023-07-22T05:01:39;2.10;;;1.70;;
19038;SDS011;9652;49.014;12.052;2023-07-22T05:04:06;2.33;;;1.77;;
19038;SDS011;9652;49.014;12.052;2023-07-22T05:06:33;3.23;;;2.20;;
19038;SDS011;9652;49.014;12.052;2023-07-22T05:09:02;1.77;;;1.60;;
19038;SDS011;9652;49.014;12.052;2023-07-22T05:11:30;2.77;;;1.93;;
19038;SDS011;9652;49.014;12.052;2023-07-22T05:13:57;1.63;;;1.53;;
19038;SDS011;9652;49.014;12.052;2023-07-22T05:16:24;2.07;;;1.60;;
19038;SDS011;9652;49.014;12.052;2023-07-22T05:18:51;2.57;;;1.70;;
19038;SDS011;9652;49.014;12.052;2023-07-22T05:21:18;3.40;;;2.23;;
19038;SDS011;9652;49.014;12.052;2023-07-22T05:23:45;4.80;;;2.13;;
19038;SDS011;9652;49.014;12.052;2023-07-22T05:26:14;2.13;;;1.57;;
19038;SDS011;9652;49.014;12.052;2023-07-22T05:28:41;1.87;;;1.77;;
19038;SDS011;9652;49.014;12.052;2023-07-22T05:31:08;1.90;;;1.47;;
19038;SDS011;9652;49.014;12.052;2023-07-22T05:33:35;2.50;;;1.87;;
19038;SDS011;9652;49.014;12.052;2023-07-22T05:36:02;2.00;;;1.50;;
19038;SDS011;9652;49.014;12.052;2023-07-22T05:38:30;5.73;;;2.10;;
19038;SDS011;9652;49.014;12.052;2023-07-22T05:40:57;3.50;;;1.90;;
19038;SDS011;9652;49.014;12.052;2023-07-22T05:43:26;2.20;;;1.67;;
19038;SDS011;9652;49.014;12.052;2023-07-22T05:45:53;2.10;;;1.90;;
19038;SDS011;9652;49.014;12.052;2023-07-22T05:48:20;3.00;;;1.80;;
19038;SDS011;9652;49.014;12.052;2023-07-22T05:50:47;2.10;;;1.70;;
19038;SDS011;9652;49.014;12.052;2023-07-22T05:53:15;5.57;;;2.00;;
19038;SDS011;9652;49.014;12.052;2023-07-22T05:55:42;3.13;;;1.70;;
19038;SDS011;9652;49.014;12.052;2023-07-22T05:58:15;6.60;;;3.67;;
19038;SDS011;9652;49.014;12.052;2023-07-22T06:00:45;5.00;;;2.47;;
19038;SDS011;9652;49.014;12.052;2023-07-22T06:03:14;2.57;;;2.00;;
19038;SDS011;9652;49.014;12.052;2023-07-22T06:05:41;2.53;;;2.10;;
19038;SDS011;9652;49.014;12.052;2023-07-22T06:08:08;4.90;;;3.67;;
19038;SDS011;9652;49.014;12.052;2023-07-22T06:10:35;3.77;;;2.70;;
19038;SDS011;9652;49.014;12.052;2023-07-22T06:13:03;3.30;;;2.40;;
19038;SDS011;9652;49.014;12.052;2023-07-22T06:15:30;4.03;;;2.20;;
19038;SDS011;9652;49.014;12.052;2023-07-22T06:17:59;2.53;;;1.83;;
19038;SDS011;9652;49.014;12.052;2023-07-22T06:20:26;2.40;;;1.73;;
19038;SDS011;9652;49.014;12.052;2023-07-22T06:22:54;2.40;;;2.03;;
19038;SDS011;9652;49.014;12.052;2023-07-22T06:25:21;4.43;;;2.10;;
19038;SDS011;9652;49.014;12.052;2023-07-22T06:27:48;1.70;;;1.60;;
19038;SDS011;9652;49.014;12.052;2023-07-22T06:30:16;4.87;;;1.50;;
19038;SDS011;9652;49.014;12.052;2023-07-22T06:32:44;2.27;;;1.93;;
19038;SDS011;9652;49.014;12.052;2023-07-22T06:35:13;2.30;;;1.70;;
19038;SDS011;9652;49.014;12.052;2023-07-22T06:37:40;2.23;;;1.70;;
19038;SDS011;9652;49.014;12.052;2023-07-22T06:40:07;2.30;;;1.60;;
19038;SDS011;9652;49.014;12.052;2023-07-22T06:42:35;2.23;;;2.00;;
19038;SDS011;9652;49.014;12.052;2023-07-22T06:45:02;1.97;;;1.73;;
19038;SDS011;9652;49.014;12.052;2023-07-22T06:47:30;2.63;;;1.70;;
19038;SDS011;9652;49.014;12.052;2023-07-22T06:49:57;2.53;;;1.90;;
19038;SDS011;9652;49.014;12.052;2023-07-22T06:52:26;2.70;;;1.67;;
19038;SDS011;9652;49.014;12.052;2023-07-22T06:54:53;1.87;;;1.73;;
19038;SDS011;9652;49.014;12.052;2023-07-22T06:57:20;2.80;;;1.80;;
19038;SDS011;9652;49.014;12.052;2023-07-22T06:59:47;2.10;;;1.90;;
19038;SDS011;9652;49.014;12.052;2023-07-22T07:02:16;2.17;;;1.60;;
19038;SDS011;9652;49.014;12.052;2023-07-22T07:04:43;3.07;;;1.70;;
19038;SDS011;9652;49.014;12.052;2023-07-22T07:07:10;2.63;;;1.90;;
19038;SDS011;9652;49.014;12.052;2023-07-22T07:09:39;2.47;;;1.87;;
19038;SDS011;9652;49.014;12.052;2023-07-22T07:12:07;2.83;;;1.90;;
19038;SDS011;9652;49.014;12.052;2023-07-22T07:14:34;2.00;;;1.37;;
19038;SDS011;9652;49.014;12.052;2023-07-22T07:17:02;2.17;;;1.67;;
19038;SDS011;9652;49.014;12.052;2023-07-22T07:19:30;3.90;;;1.60;;
19038;SDS011;9652;49.014;12.052;2023-07-22T07:21:57;2.07;;;1.50;;
19038;SDS011;9652;49.014;12.052;2023-07-22T07:24:24;1.57;;;1.47;;
19038;SDS011;9652;49.014;12.052;2023-07-22T07:26:53;1.83;;;1.57;;
19038;SDS011;9652;49.014;12.052;2023-07-22T07:29:20;2.23;;;1.37;;
19038;SDS011;9652;49.014;12.052;2023-07-22T07:31:48;2.90;;;1.47;;
19038;SDS011;9652;49.014;12.052;2023-07-22T07:34:15;2.20;;;1.90;;
19038;SDS011;9652;49.014;12.052;2023-07-22T07:36:42;2.13;;;1.50;;
19038;SDS011;9652;49.014;12.052;2023-07-22T07:39:09;2.03;;;1.63;;
19038;SDS011;9652;49.014;12.052;2023-07-22T07:41:36;2.13;;;1.60;;
19038;SDS011;9652;49.014;12.052;2023-07-22T07:44:06;1.87;;;1.67;;
19038;SDS011;9652;49.014;12.052;2023-07-22T07:46:33;1.93;;;1.40;;
19038;SDS011;9652;49.014;12.052;2023-07-22T07:49:00;1.40;;;1.30;;
19038;SDS011;9652;49.014;12.052;2023-07-22T07:51:28;6.47;;;1.77;;
19038;SDS011;9652;49.014;12.052;2023-07-22T07:53:57;2.77;;;1.50;;
19038;SDS011;9652;49.014;12.052;2023-07-22T07:56:25;1.63;;;1.30;;
19038;SDS011;9652;49.014;12.052;2023-07-22T07:58:54;1.43;;;1.33;;
19038;SDS011;9652;49.014;12.052;2023-07-22T08:01:22;3.07;;;1.30;;
19038;SDS011;9652;49.014;12.052;2023-07-22T08:03:49;1.47;;;1.13;;
19038;SDS011;9652;49.014;12.052;2023-07-22T08:06:16;2.30;;;1.33;;
19038;SDS011;9652;49.014;12.052;2023-07-22T08:08:44;2.73;;;1.23;;
19038;SDS011;9652;49.014;12.052;2023-07-22T08:11:12;1.67;;;1.27;;
19038;SDS011;9652;49.014;12.052;2023-07-22T08:13:41;1.97;;;1.30;;
19038;SDS011;9652;49.014;12.052;2023-07-22T08:16:10;2.27;;;1.43;;
19038;SDS011;9652;49.014;12.052;2023-07-22T08:18:41;2.83;;;1.50;;
19038;SDS011;9652;49.014;12.052;2023-07-22T08:21:08;2.67;;;1.33;;
19038;SDS011;9652;49.014;12.052;2023-07-22T08:23:36;5.33;;;1.40;;
19038;SDS011;9652;49.014;12.052;2023-07-22T08:26:03;1.23;;;1.10;;
19038;SDS011;9652;49.014;12.052;2023-07-22T08:28:31;1.53;;;0.90;;
19038;SDS011;9652;49.014;12.052;2023-07-22T08:30:58;1.37;;;1.00;;
19038;SDS011;9652;49.014;12.052;2023-07-22T08:33:26;4.07;;;1.17;;
19038;SDS011;9652;49.014;12.052;2023-07-22T08:35:55;2.70;;;1.23;;
19038;SDS011;9652;49.014;12.052;2023-07-22T08:38:22;2.43;;;1.13;;
19038;SDS011;9652;49.014;12.052;2023-07-22T08:40:49;2.37;;;1.30;;
19038;SDS011;9652;49.014;12.052;2023-07-22T08:43:19;2.80;;;1.00;;
19038;SDS011;9652;49.014;12.052;2023-07-22T08:45:49;1.07;;;0.93;;
19038;SDS011;9652;49.014;12.052;2023-07-22T08:48:18;4.53;;;1.63;;
19038;SDS011;9652;49.014;12.052;2023-07-22T08:50:53;1.73;;;1.23;;
19038;SDS011;9652;49.014;12.052;2023-07-22T08:53:28;2.03;;;0.83;;
19038;SDS011;9652;49.014;12.052;2023-07-22T08:55:58;1.60;;;1.13;;
19038;SDS011;9652;49.014;12.052;2023-07-22T08:58:25;1.13;;;0.90;;
19038;SDS011;9652;49.014;12.052;2023-07-22T09:00:53;1.33;;;1.07;;
19038;SDS011;9652;49.014;12.052;2023-07-22T09:03:22;1.53;;;0.90;;
19038;SDS011;9652;49.014;12.052;2023-07-22T09:05:51;1.43;;;0.80;;
19038;SDS011;9652;49.014;12.052;2023-07-22T09:08:21;2.07;;;0.97;;
19038;SDS011;9652;49.014;12.052;2023-07-22T09:10:48;1.63;;;1.10;;
19038;SDS011;9652;49.014;12.052;2023-07-22T09:13:15;1.13;;;0.90;;
19038;SDS011;9652;49.014;12.052;2023-07-22T09:15:45;1.27;;;0.97;;
19038;SDS011;9652;49.014;12.052;2023-07-22T09:18:14;1.40;;;0.80;;
19038;SDS011;9652;49.014;12.052;2023-07-22T09:20:41;1.63;;;1.08;;
19038;SDS011;9652;49.014;12.052;2023-07-22T09:23:08;1.95;;;1.00;;
19038;SDS011;9652;49.014;12.052;2023-07-22T09:25:37;1.30;;;1.03;;
19038;SDS011;9652;49.014;12.052;2023-07-22T09:28:04;1.63;;;1.20;;
19038;SDS011;9652;49.014;12.052;2023-07-22T09:30:32;1.10;;;0.90;;
19038;SDS011;9652;49.014;12.052;2023-07-22T09:33:03;1.70;;;0.75;;
19038;SDS011;9652;49.014;12.052;2023-07-22T09:35:42;1.47;;;1.00;;
19038;SDS011;9652;49.014;12.052;2023-07-22T09:38:11;1.03;;;0.93;;
19038;SDS011;9652;49.014;12.052;2023-07-22T09:40:41;2.10;;;1.37;;
19038;SDS011;9652;49.014;12.052;2023-07-22T09:43:09;3.10;;;1.30;;
19038;SDS011;9652;49.014;12.052;2023-07-22T09:45:37;2.83;;;1.03;;
19038;SDS011;9652;49.014;12.052;2023-07-22T09:48:05;2.25;;;1.10;;
19038;SDS011;9652;49.014;12.052;2023-07-22T09:50:35;1.35;;;1.20;;
19038;SDS011;9652;49.014;12.052;2023-07-22T09:53:03;1.77;;;1.23;;
19038;SDS011;9652;49.014;12.052;2023-07-22T09:55:31;1.30;;;1.20;;
19038;SDS011;9652;49.014;12.052;2023-07-22T09:58:01;2.63;;;1.10;;
19038;SDS011;9652;49.014;12.052;2023-07-22T10:00:31;1.20;;;1.10;;
19038;SDS011;9652;49.014;12.052;2023-07-22T10:03:01;1.47;;;0.90;;
19038;SDS011;9652;49.014;12.052;2023-07-22T10:05:38;1.45;;;1.17;;
19038;SDS011;9652;49.014;12.052;2023-07-22T10:08:05;1.90;;;1.17;;
19038;SDS011;9652;49.014;12.052;2023-07-22T10:10:34;1.53;;;1.13;;
19038;SDS011;9652;49.014;12.052;2023-07-22T10:13:05;3.77;;;1.10;;
19038;SDS011;9652;49.014;12.052;2023-07-22T10:15:33;1.63;;;1.10;;
19038;SDS011;9652;49.014;12.052;2023-07-22T10:18:01;1.70;;;1.20;;
19038;SDS011;9652;49.014;12.052;2023-07-22T10:20:30;1.87;;;1.00;;
19038;SDS011;9652;49.014;12.052;2023-07-22T10:22:59;0.80;;;0.80;;
19038;SDS011;9652;49.014;12.052;2023-07-22T10:25:29;1.63;;;0.80;;
19038;SDS011;9652;49.014;12.052;2023-07-22T10:27:57;2.33;;;1.13;;
19038;SDS011;9652;49.014;12.052;2023-07-22T10:30:25;2.05;;;1.10;;
19038;SDS011;9652;49.014;12.052;2023-07-22T10:32:53;1.25;;;1.15;;
19038;SDS011;9652;49.014;12.052;2023-07-22T10:35:21;1.35;;;0.90;;
19038;SDS011;9652;49.014;12.052;2023-07-22T10:38:06;1.50;;;0.93;;
19038;SDS011;9652;49.014;12.052;2023-07-22T10:40:44;1.85;;;0.93;;
19038;SDS011;9652;49.014;12.052;2023-07-22T10:43:12;1.08;;;0.98;;
19038;SDS011;9652;49.014;12.052;2023-07-22T10:45:50;0.93;;;0.65;;
19038;SDS011;9652;49.014;12.052;2023-07-22T10:48:19;1.15;;;0.80;;
19038;SDS011;9652;49.014;12.052;2023-07-22T10:50:49;0.77;;;0.73;;
19038;SDS011;9652;49.014;12.052;2023-07-22T10:53:28;3.33;;;0.90;;
19038;SDS011;9652;49.014;12.052;2023-07-22T10:56:03;3.08;;;0.80;;
19038;SDS011;9652;49.014;12.052;2023-07-22T10:58:32;1.38;;;0.90;;
19038;SDS011;9652;49.014;12.052;2023-07-22T11:01:23;0.90;;;0.80;;
19038;SDS011;9652;49.014;12.052;2023-07-22T11:06:57;1.17;;;0.98;;
19038;SDS011;9652;49.014;12.052;2023-07-22T11:09:36;1.63;;;1.02;;
19038;SDS011;9652;49.014;12.052;2023-07-22T11:12:07;1.05;;;0.82;;
19038;SDS011;9652;49.014;12.052;2023-07-22T11:14:39;1.25;;;1.00;;
19038;SDS011;9652;49.014;12.052;2023-07-22T11:17:13;1.27;;;0.82;;
19038;SDS011;9652;49.014;12.052;2023-07-22T11:19:42;1.25;;;1.00;;
19038;SDS011;9652;49.014;12.052;2023-07-22T11:22:10;1.58;;;1.20;;
19038;SDS011;9652;49.014;12.052;2023-07-22T11:24:38;1.25;;;0.90;;
19038;SDS011;9652;49.014;12.052;2023-07-22T11:27:06;1.88;;;0.80;;
19038;SDS011;9652;49.014;12.052;2023-07-22T11:29:34;1.33;;;1.00;;
19038;SDS011;9652;49.014;12.052;2023-07-22T11:32:02;1.48;;;1.00;;
19038;SDS011;9652;49.014;12.052;2023-07-22T11:34:32;1.58;;;1.10;;
19038;SDS011;9652;49.014;12.052;2023-07-22T11:36:59;1.75;;;0.98;;
19038;SDS011;9652;49.014;12.052;2023-07-22T11:39:26;2.63;;;1.10;;
19038;SDS011;9652;49.014;12.052;2023-07-22T11:41:56;2.38;;;1.17;;
19038;SDS011;9652;49.014;12.052;2023-07-22T11:44:28;1.90;;;1.40;;
19038;SDS011;9652;49.014;12.052;2023-07-22T11:46:56;1.40;;;1.00;;
19038;SDS011;9652;49.014;12.052;2023-07-22T11:49:26;2.47;;;1.33;;
19038;SDS011;9652;49.014;12.052;2023-07-22T11:51:57;3.35;;;1.30;;
19038;SDS011;9652;49.014;12.052;2023-07-22T11:54:25;1.02;;;0.90;;
19038;SDS011;9652;49.014;12.052;2023-07-22T11:56:53;1.60;;;1.10;;
19038;SDS011;9652;49.014;12.052;2023-07-22T11:59:34;2.00;;;0.90;;
19038;SDS011;9652;49.014;12.052;2023-07-22T12:02:03;2.05;;;1.00;;
19038;SDS011;9652;49.014;12.052;2023-07-22T12:04:31;1.42;;;0.90;;
19038;SDS011;9652;49.014;12.052;2023-07-22T12:07:01;1.17;;;0.90;;
19038;SDS011;9652;49.014;12.052;2023-07-22T12:09:30;1.98;;;0.95;;
19038;SDS011;9652;49.014;12.052;2023-07-22T12:11:58;1.67;;;0.95;;
19038;SDS011;9652;49.014;12.052;2023-07-22T12:14:32;1.17;;;0.93;;
19038;SDS011;9652;49.014;12.052;2023-07-22T12:17:01;2.58;;;1.80;;
19038;SDS011;9652;49.014;12.052;2023-07-22T12:19:28;10.55;;;1.35;;
19038;SDS011;9652;49.014;12.052;2023-07-22T12:21:56;1.50;;;1.00;;
19038;SDS011;9652;49.014;12.052;2023-07-22T12:24:24;1.40;;;1.05;;
19038;SDS011;9652;49.014;12.052;2023-07-22T12:26:51;1.38;;;0.95;;
19038;SDS011;9652;49.014;12.052;2023-07-22T12:29:18;1.25;;;1.10;;
19038;SDS011;9652;49.014;12.052;2023-07-22T12:31:47;1.15;;;0.82;;
19038;SDS011;9652;49.014;12.052;2023-07-22T12:34:14;0.90;;;0.70;;
19038;SDS011;9652;49.014;12.052;2023-07-22T12:36:41;0.85;;;0.80;;
19038;SDS011;9652;49.014;12.052;2023-07-22T12:39:08;1.17;;;0.75;;
19038;SDS011;9652;49.014;12.052;2023-07-22T12:41:37;1.05;;;0.95;;
19038;SDS011;9652;49.014;12.052;2023-07-22T12:44:04;1.95;;;1.05;;
19038;SDS011;9652;49.014;12.052;2023-07-22T12:46:31;1.55;;;1.10;;
19038;SDS011;9652;49.014;12.052;2023-07-22T12:48:58;1.00;;;0.90;;
19038;SDS011;9652;49.014;12.052;2023-07-22T12:51:25;2.22;;;1.20;;
19038;SDS011;9652;49.014;12.052;2023-07-22T12:53:52;1.08;;;0.98;;
19038;SDS011;9652;49.014;12.052;2023-07-22T12:56:19;1.23;;;0.98;;
19038;SDS011;9652;49.014;12.052;2023-07-22T12:58:48;1.15;;;0.98;;
19038;SDS011;9652;49.014;12.052;2023-07-22T13:01:15;1.60;;;0.95;;
19038;SDS011;9652;49.014;12.052;2023-07-22T13:03:42;3.65;;;1.30;;
19038;SDS011;9652;49.014;12.052;2023-07-22T13:06:09;1.83;;;1.00;;
19038;SDS011;9652;49.014;12.052;2023-07-22T13:08:36;1.20;;;0.88;;
19038;SDS011;9652;49.014;12.052;2023-07-22T13:11:04;1.98;;;1.30;;
19038;SDS011;9652;49.014;12.052;2023-07-22T13:13:31;1.67;;;0.85;;
19038;SDS011;9652;49.014;12.052;2023-07-22T13:15:59;1.75;;;1.20;;
19038;SDS011;9652;49.014;12.052;2023-07-22T13:18:26;2.60;;;1.55;;
19038;SDS011;9652;49.014;12.052;2023-07-22T13:20:53;2.85;;;1.10;;
19038;SDS011;9652;49.014;12.052;2023-07-22T13:23:20;0.63;;;0.63;;
19038;SDS011;9652;49.014;12.052;2023-07-22T13:25:47;2.10;;;0.95;;
19038;SDS011;9652;49.014;12.052;2023-07-22T13:28:14;3.38;;;0.80;;
19038;SDS011;9652;49.014;12.052;2023-07-22T13:30:41;0.98;;;0.80;;
19038;SDS011;9652;49.014;12.052;2023-07-22T13:33:10;2.63;;;0.85;;
19038;SDS011;9652;49.014;12.052;2023-07-22T13:35:37;2.95;;;0.93;;
19038;SDS011;9652;49.014;12.052;2023-07-22T13:38:04;1.50;;;0.90;;
19038;SDS011;9652;49.014;12.052;2023-07-22T13:40:31;1.63;;;0.90;;
19038;SDS011;9652;49.014;12.052;2023-07-22T13:42:58;1.00;;;0.90;;
19038;SDS011;9652;49.014;12.052;2023-07-22T13:45:25;1.13;;;1.02;;
19038;SDS011;9652;49.014;12.052;2023-07-22T13:47:52;2.65;;;1.15;;
19038;SDS011;9652;49.014;12.052;2023-07-22T13:50:21;1.52;;;0.93;;
19038;SDS011;9652;49.014;12.052;2023-07-22T13:52:48;0.90;;;0.80;;
19038;SDS011;9652;49.014;12.052;2023-07-22T13:55:16;0.95;;;0.70;;
19038;SDS011;9652;49.014;12.052;2023-07-22T13:57:43;1.15;;;0.95;;
19038;SDS011;9652;49.014;12.052;2023-07-22T14:00:11;1.15;;;0.95;;
19038;SDS011;9652;49.014;12.052;2023-07-22T14:02:39;4.22;;;1.35;;
19038;SDS011;9652;49.014;12.052;2023-07-22T14:05:07;1.95;;;1.30;;
19038;SDS011;9652;49.014;12.052;2023-07-22T14:07:36;8.38;;;0.98;;
19038;SDS011;9652;49.014;12.052;2023-07-22T14:10:05;1.88;;;1.00;;
19038;SDS011;9652;49.014;12.052;2023-07-22T14:12:34;1.58;;;1.05;;
19038;SDS011;9652;49.014;12.052;2023-07-22T14:15:01;1.55;;;1.10;;
19038;SDS011;9652;49.014;12.052;2023-07-22T14:17:30;1.75;;;1.27;;
19038;SDS011;9652;49.014;12.052;2023-07-22T14:19:58;1.67;;;1.35;;
19038;SDS011;9652;49.014;12.052;2023-07-22T14:22:25;1.35;;;1.05;;
19038;SDS011;9652;49.014;12.052;2023-07-22T14:24:53;1.35;;;1.20;;
19038;SDS011;9652;49.014;12.052;2023-07-22T14:27:20;1.48;;;0.90;;
19038;SDS011;9652;49.014;12.052;2023-07-22T14:29:47;1.15;;;1.02;;
19038;SDS011;9652;49.014;12.052;2023-07-22T14:32:14;1.10;;;0.93;;
19038;SDS011;9652;49.014;12.052;2023-07-22T14:34:42;4.00;;;1.10;;
19038;SDS011;9652;49.014;12.052;2023-07-22T14:37:09;1.52;;;0.98;;
19038;SDS011;9652;49.014;12.052;2023-07-22T14:39:36;1.73;;;0.98;;
19038;SDS011;9652;49.014;12.052;2023-07-22T14:42:04;1.70;;;1.17;;
19038;SDS011;9652;49.014;12.052;2023-07-22T14:44:32;1.48;;;1.13;;
19038;SDS011;9652;49.014;12.052;2023-07-22T14:46:59;0.85;;;0.82;;
19038;SDS011;9652;49.014;12.052;2023-07-22T14:49:26;0.98;;;0.82;;
19038;SDS011;9652;49.014;12.052;2023-07-22T14:51:53;2.30;;;1.00;;
19038;SDS011;9652;49.014;12.052;2023-07-22T14:54:21;1.00;;;0.90;;
19038;SDS011;9652;49.014;12.052;2023-07-22T14:56:48;1.30;;;1.00;;